Aérodrome :
LOGIN :

S'inscrire | Disclaimer

   EN    FR    IT 

 










Légende :    VFR   VFR Marginal   IFR   IFR Intensif   IFR Très Intensif
Visi : 
Plafond : 
>= 8 km
>= 3000ft
5 à 8 km
1000 à 3000 ft
1500m à 5 km
500 à 1000 ft
800 à 1500m
200 à 500 ft
< 800m
< 200 ft
Symboles :   Orages  Brouillard  Fortes neiges  Fortes précipitations  Vent > 20 kt
SIGMETs :   Divers  Orages  Givrage  Turbulence  Onde Orograph.  Cendres Volcan.







- Altitude de l'aérodrome : 424 ft
- Code IATA : QGY


LHPR - Györ Per

DERNIER METAR :
  • 141945Z AUTO 01004KT 340V040 6000 -SN BKN034 M01/M01 Q1022 RMK WHT

METARs EXPIRÉS :
  • 141915Z AUTO 02003KT 360V060 7000 OVC035 M02/M02 Q1022 RMK WHT
  • 141845Z AUTO VRB01KT 7000 OVC036 M02/M02 Q1022 RMK WHT
  • 141815Z AUTO 32003KT 5000 BR OVC036 M02/M02 Q1022 RMK WHT
  • 141745Z AUTO 31002KT 5000 BR OVC035 M02/M02 Q1022 RMK WHT
  • 141715Z AUTO VRB03KT 6000 OVC036 M02/M02 Q1022 RMK WHT

TAF TAF LHPR
Valide du 14 à 18h jusqu'au 15 à 03h UTC


141715Z 1418/1503 36006KT 5000 BR SCT008 BKN033 OVC080
TEMPO 1418/1503 1500 -SN BR BKN006 OVC025
PROB40
TEMPO 1500/1503 0800 SN BKN003 OVC015
Pas de NOTAMs connus pour ce terrain.



MET'MAP, la Météo Aéronautique d'un coup d'oeil ! - Copyright ORBIFLY Décembre 2007 - Disclaimer

ORBIFLY MET'MAP TEAM :

Programmation & Développement : Alexandra Zaïnal
Conception & Développement : Baudouin d'Aumeries
Co-Programmation & Développement : Marc-Olivier Méhu
Soutien technique & logistique : Manuel Goepfert

Contact : metmap@orbifly.com




SOURCES & CREDITS :

   NOAA